sensor_id;sensor_type;location;lat;lon;timestamp;temperature;humidity
41533;DHT22;27262;-35.248;149.138;2022-11-20T00:02:12;20.30;69.60
41533;DHT22;27262;-35.248;149.138;2022-11-20T00:04:42;20.20;69.30
41533;DHT22;27262;-35.248;149.138;2022-11-20T00:07:13;20.20;69.30
41533;DHT22;27262;-35.248;149.138;2022-11-20T00:09:43;20.30;69.10
41533;DHT22;27262;-35.248;149.138;2022-11-20T00:12:13;20.30;69.10
41533;DHT22;27262;-35.248;149.138;2022-11-20T00:14:43;20.30;68.90
41533;DHT22;27262;-35.248;149.138;2022-11-20T00:17:14;20.30;69.50
41533;DHT22;27262;-35.248;149.138;2022-11-20T00:19:44;20.20;68.60
41533;DHT22;27262;-35.248;149.138;2022-11-20T00:22:14;20.20;68.60
41533;DHT22;27262;-35.248;149.138;2022-11-20T00:24:44;20.30;68.50
41533;DHT22;27262;-35.248;149.138;2022-11-20T00:27:15;20.30;68.50
41533;DHT22;27262;-35.248;149.138;2022-11-20T00:29:45;20.30;68.40
41533;DHT22;27262;-35.248;149.138;2022-11-20T00:32:16;20.30;68.20
41533;DHT22;27262;-35.248;149.138;2022-11-20T00:34:46;20.30;68.20
41533;DHT22;27262;-35.248;149.138;2022-11-20T00:37:16;20.30;68.10
41533;DHT22;27262;-35.248;149.138;2022-11-20T00:39:46;20.30;68.20
41533;DHT22;27262;-35.248;149.138;2022-11-20T00:42:17;20.30;68.00
41533;DHT22;27262;-35.248;149.138;2022-11-20T00:44:47;20.30;67.80
41533;DHT22;27262;-35.248;149.138;2022-11-20T00:47:17;20.30;67.80
41533;DHT22;27262;-35.248;149.138;2022-11-20T00:49:48;20.30;67.70
41533;DHT22;27262;-35.248;149.138;2022-11-20T00:52:18;20.30;67.60
41533;DHT22;27262;-35.248;149.138;2022-11-20T00:54:48;20.30;67.60
41533;DHT22;27262;-35.248;149.138;2022-11-20T00:57:18;20.30;67.60
41533;DHT22;27262;-35.248;149.138;2022-11-20T00:59:49;20.30;67.60
41533;DHT22;27262;-35.248;149.138;2022-11-20T01:02:19;20.30;67.60
41533;DHT22;27262;-35.248;149.138;2022-11-20T01:04:49;20.40;67.60
41533;DHT22;27262;-35.248;149.138;2022-11-20T01:07:19;20.40;67.60
41533;DHT22;27262;-35.248;149.138;2022-11-20T01:09:50;20.40;67.50
41533;DHT22;27262;-35.248;149.138;2022-11-20T01:12:20;20.40;67.50
41533;DHT22;27262;-35.248;149.138;2022-11-20T01:14:50;20.40;67.40
41533;DHT22;27262;-35.248;149.138;2022-11-20T01:17:20;20.40;67.30
41533;DHT22;27262;-35.248;149.138;2022-11-20T01:19:51;20.40;67.20
41533;DHT22;27262;-35.248;149.138;2022-11-20T01:22:21;20.40;67.20
41533;DHT22;27262;-35.248;149.138;2022-11-20T01:24:52;20.50;67.30
41533;DHT22;27262;-35.248;149.138;2022-11-20T01:27:22;20.50;67.30
41533;DHT22;27262;-35.248;149.138;2022-11-20T01:29:52;20.50;67.20
41533;DHT22;27262;-35.248;149.138;2022-11-20T01:32:27;20.50;67.10
41533;DHT22;27262;-35.248;149.138;2022-11-20T01:34:58;20.50;67.10
41533;DHT22;27262;-35.248;149.138;2022-11-20T01:37:28;20.60;67.00
41533;DHT22;27262;-35.248;149.138;2022-11-20T01:39:58;20.50;66.80
41533;DHT22;27262;-35.248;149.138;2022-11-20T01:42:28;20.50;66.70
41533;DHT22;27262;-35.248;149.138;2022-11-20T01:48:19;20.60;66.20
41533;DHT22;27262;-35.248;149.138;2022-11-20T01:50:52;20.60;66.40
41533;DHT22;27262;-35.248;149.138;2022-11-20T01:53:28;20.60;66.20
41533;DHT22;27262;-35.248;149.138;2022-11-20T01:56:01;20.60;66.10
41533;DHT22;27262;-35.248;149.138;2022-11-20T01:58:37;20.60;66.80
41533;DHT22;27262;-35.248;149.138;2022-11-20T02:01:09;20.60;65.90
41533;DHT22;27262;-35.248;149.138;2022-11-20T02:03:41;20.60;65.90
41533;DHT22;27262;-35.248;149.138;2022-11-20T02:06:19;20.60;65.80
41533;DHT22;27262;-35.248;149.138;2022-11-20T02:08:52;20.60;65.70
41533;DHT22;27262;-35.248;149.138;2022-11-20T02:11:22;20.60;65.70
41533;DHT22;27262;-35.248;149.138;2022-11-20T02:13:53;20.60;65.30
41533;DHT22;27262;-35.248;149.138;2022-11-20T02:16:46;20.60;65.30
41533;DHT22;27262;-35.248;149.138;2022-11-20T02:19:28;20.70;65.10
41533;DHT22;27262;-35.248;149.138;2022-11-20T02:24:51;20.70;65.20
41533;DHT22;27262;-35.248;149.138;2022-11-20T02:27:22;20.70;65.20
41533;DHT22;27262;-35.248;149.138;2022-11-20T02:29:58;20.70;65.00
41533;DHT22;27262;-35.248;149.138;2022-11-20T02:32:35;20.70;64.80
41533;DHT22;27262;-35.248;149.138;2022-11-20T02:37:54;20.80;64.60
41533;DHT22;27262;-35.248;149.138;2022-11-20T02:40:25;20.70;64.70
41533;DHT22;27262;-35.248;149.138;2022-11-20T02:42:56;20.70;64.70
41533;DHT22;27262;-35.248;149.138;2022-11-20T02:45:26;20.70;64.70
41533;DHT22;27262;-35.248;149.138;2022-11-20T02:47:56;20.70;64.70
41533;DHT22;27262;-35.248;149.138;2022-11-20T02:50:27;20.80;64.60
41533;DHT22;27262;-35.248;149.138;2022-11-20T02:52:57;20.80;64.60
41533;DHT22;27262;-35.248;149.138;2022-11-20T02:55:27;20.80;64.50
41533;DHT22;27262;-35.248;149.138;2022-11-20T02:57:57;20.80;64.40
41533;DHT22;27262;-35.248;149.138;2022-11-20T03:00:27;20.80;64.30
41533;DHT22;27262;-35.248;149.138;2022-11-20T03:02:58;20.80;64.30
41533;DHT22;27262;-35.248;149.138;2022-11-20T03:05:28;20.90;64.00
41533;DHT22;27262;-35.248;149.138;2022-11-20T03:07:58;20.80;64.10
41533;DHT22;27262;-35.248;149.138;2022-11-20T03:10:28;20.80;64.00
41533;DHT22;27262;-35.248;149.138;2022-11-20T03:12:59;20.90;63.90
41533;DHT22;27262;-35.248;149.138;2022-11-20T03:15:29;20.90;63.90
41533;DHT22;27262;-35.248;149.138;2022-11-20T03:17:59;20.90;63.80
41533;DHT22;27262;-35.248;149.138;2022-11-20T03:20:30;20.90;63.70
41533;DHT22;27262;-35.248;149.138;2022-11-20T03:23:00;20.90;63.70
41533;DHT22;27262;-35.248;149.138;2022-11-20T03:25:31;20.90;63.60
41533;DHT22;27262;-35.248;149.138;2022-11-20T03:28:02;20.90;63.60
41533;DHT22;27262;-35.248;149.138;2022-11-20T03:30:34;20.90;63.40
41533;DHT22;27262;-35.248;149.138;2022-11-20T03:33:05;20.90;63.10
41533;DHT22;27262;-35.248;149.138;2022-11-20T03:35:35;20.90;63.20
41533;DHT22;27262;-35.248;149.138;2022-11-20T03:38:05;20.90;62.80
41533;DHT22;27262;-35.248;149.138;2022-11-20T03:40:36;21.00;62.60
41533;DHT22;27262;-35.248;149.138;2022-11-20T03:43:06;20.90;62.50
41533;DHT22;27262;-35.248;149.138;2022-11-20T03:45:36;20.90;62.70
41533;DHT22;27262;-35.248;149.138;2022-11-20T03:48:06;20.90;62.80
41533;DHT22;27262;-35.248;149.138;2022-11-20T03:50:37;20.90;62.80
41533;DHT22;27262;-35.248;149.138;2022-11-20T03:53:07;20.90;62.70
41533;DHT22;27262;-35.248;149.138;2022-11-20T03:55:37;20.90;62.70
41533;DHT22;27262;-35.248;149.138;2022-11-20T03:58:08;20.90;62.60
41533;DHT22;27262;-35.248;149.138;2022-11-20T04:00:38;21.00;62.60
41533;DHT22;27262;-35.248;149.138;2022-11-20T04:03:09;20.90;62.60
41533;DHT22;27262;-35.248;149.138;2022-11-20T04:05:39;21.00;62.60
41533;DHT22;27262;-35.248;149.138;2022-11-20T04:08:09;21.00;62.40
41533;DHT22;27262;-35.248;149.138;2022-11-20T04:10:39;21.00;62.20
41533;DHT22;27262;-35.248;149.138;2022-11-20T04:13:09;21.00;62.10
41533;DHT22;27262;-35.248;149.138;2022-11-20T04:15:40;21.00;62.10
41533;DHT22;27262;-35.248;149.138;2022-11-20T04:18:10;21.00;62.00
41533;DHT22;27262;-35.248;149.138;2022-11-20T04:20:40;21.00;61.90
41533;DHT22;27262;-35.248;149.138;2022-11-20T04:23:10;21.00;61.80
41533;DHT22;27262;-35.248;149.138;2022-11-20T04:25:41;21.00;61.80
41533;DHT22;27262;-35.248;149.138;2022-11-20T04:28:11;21.00;61.80
41533;DHT22;27262;-35.248;149.138;2022-11-20T04:30:41;21.00;61.70
41533;DHT22;27262;-35.248;149.138;2022-11-20T04:33:11;21.00;61.60
41533;DHT22;27262;-35.248;149.138;2022-11-20T04:35:42;21.10;61.50
41533;DHT22;27262;-35.248;149.138;2022-11-20T04:38:13;21.00;61.40
41533;DHT22;27262;-35.248;149.138;2022-11-20T04:40:43;21.10;61.40
41533;DHT22;27262;-35.248;149.138;2022-11-20T04:43:13;21.10;61.40
41533;DHT22;27262;-35.248;149.138;2022-11-20T04:45:49;21.10;61.30
41533;DHT22;27262;-35.248;149.138;2022-11-20T04:48:20;21.10;61.30
41533;DHT22;27262;-35.248;149.138;2022-11-20T04:50:50;21.10;61.30
41533;DHT22;27262;-35.248;149.138;2022-11-20T04:53:21;21.10;60.90
41533;DHT22;27262;-35.248;149.138;2022-11-20T04:55:52;21.10;60.90
41533;DHT22;27262;-35.248;149.138;2022-11-20T04:58:29;21.10;60.90
41533;DHT22;27262;-35.248;149.138;2022-11-20T05:01:13;21.10;60.80
41533;DHT22;27262;-35.248;149.138;2022-11-20T05:03:45;21.10;60.80
41533;DHT22;27262;-35.248;149.138;2022-11-20T05:06:17;21.10;60.90
41533;DHT22;27262;-35.248;149.138;2022-11-20T05:08:47;21.10;60.90
41533;DHT22;27262;-35.248;149.138;2022-11-20T05:11:20;21.10;60.90
41533;DHT22;27262;-35.248;149.138;2022-11-20T05:13:51;21.20;60.90
41533;DHT22;27262;-35.248;149.138;2022-11-20T05:16:23;21.10;60.90
41533;DHT22;27262;-35.248;149.138;2022-11-20T05:18:55;21.10;61.00
41533;DHT22;27262;-35.248;149.138;2022-11-20T05:21:25;21.10;61.00
41533;DHT22;27262;-35.248;149.138;2022-11-20T05:23:57;21.20;61.10
41533;DHT22;27262;-35.248;149.138;2022-11-20T05:26:27;21.20;61.10
41533;DHT22;27262;-35.248;149.138;2022-11-20T05:28:57;21.20;61.10
41533;DHT22;27262;-35.248;149.138;2022-11-20T05:31:28;21.20;61.20
41533;DHT22;27262;-35.248;149.138;2022-11-20T05:33:58;21.20;61.10
41533;DHT22;27262;-35.248;149.138;2022-11-20T05:36:29;21.20;61.20
41533;DHT22;27262;-35.248;149.138;2022-11-20T05:38:59;21.20;61.10
41533;DHT22;27262;-35.248;149.138;2022-11-20T05:41:30;21.20;61.20
41533;DHT22;27262;-35.248;149.138;2022-11-20T05:44:00;21.30;62.00
41533;DHT22;27262;-35.248;149.138;2022-11-20T05:46:30;21.20;61.30
41533;DHT22;27262;-35.248;149.138;2022-11-20T05:49:00;21.30;61.50
41533;DHT22;27262;-35.248;149.138;2022-11-20T05:51:31;21.30;61.50
41533;DHT22;27262;-35.248;149.138;2022-11-20T05:54:01;21.30;61.60
41533;DHT22;27262;-35.248;149.138;2022-11-20T05:56:31;21.30;61.70
41533;DHT22;27262;-35.248;149.138;2022-11-20T05:59:02;21.30;61.70
41533;DHT22;27262;-35.248;149.138;2022-11-20T06:01:32;21.30;61.90
41533;DHT22;27262;-35.248;149.138;2022-11-20T06:04:04;21.30;61.80
41533;DHT22;27262;-35.248;149.138;2022-11-20T06:06:34;21.30;61.90
41533;DHT22;27262;-35.248;149.138;2022-11-20T06:09:04;21.30;62.00
41533;DHT22;27262;-35.248;149.138;2022-11-20T06:11:34;21.30;61.90
41533;DHT22;27262;-35.248;149.138;2022-11-20T06:14:05;21.30;61.90
41533;DHT22;27262;-35.248;149.138;2022-11-20T06:16:35;21.30;61.90
41533;DHT22;27262;-35.248;149.138;2022-11-20T06:19:06;21.40;62.00
41533;DHT22;27262;-35.248;149.138;2022-11-20T06:21:36;21.30;61.90
41533;DHT22;27262;-35.248;149.138;2022-11-20T06:24:08;21.30;61.90
41533;DHT22;27262;-35.248;149.138;2022-11-20T06:26:38;21.40;62.00
41533;DHT22;27262;-35.248;149.138;2022-11-20T06:29:09;21.40;62.80
41533;DHT22;27262;-35.248;149.138;2022-11-20T06:31:40;21.40;62.00
41533;DHT22;27262;-35.248;149.138;2022-11-20T06:34:11;21.40;61.90
41533;DHT22;27262;-35.248;149.138;2022-11-20T06:36:42;21.40;62.00
41533;DHT22;27262;-35.248;149.138;2022-11-20T06:39:12;21.40;62.00
41533;DHT22;27262;-35.248;149.138;2022-11-20T06:41:42;21.40;61.90
41533;DHT22;27262;-35.248;149.138;2022-11-20T06:44:12;21.40;61.90
41533;DHT22;27262;-35.248;149.138;2022-11-20T06:46:43;21.40;61.90
41533;DHT22;27262;-35.248;149.138;2022-11-20T06:49:13;21.40;61.80
41533;DHT22;27262;-35.248;149.138;2022-11-20T06:51:43;21.40;61.90
41533;DHT22;27262;-35.248;149.138;2022-11-20T06:54:13;21.40;61.80
41533;DHT22;27262;-35.248;149.138;2022-11-20T06:56:47;21.40;61.80
41533;DHT22;27262;-35.248;149.138;2022-11-20T06:59:17;21.40;61.80
41533;DHT22;27262;-35.248;149.138;2022-11-20T07:01:48;21.40;61.80
41533;DHT22;27262;-35.248;149.138;2022-11-20T07:04:18;21.40;61.80
41533;DHT22;27262;-35.248;149.138;2022-11-20T07:06:48;21.40;61.70
41533;DHT22;27262;-35.248;149.138;2022-11-20T07:09:56;21.40;61.40
41533;DHT22;27262;-35.248;149.138;2022-11-20T07:12:26;21.40;61.60
41533;DHT22;27262;-35.248;149.138;2022-11-20T07:14:56;21.40;61.70
41533;DHT22;27262;-35.248;149.138;2022-11-20T07:17:27;21.40;61.80
41533;DHT22;27262;-35.248;149.138;2022-11-20T07:20:00;21.50;61.90
41533;DHT22;27262;-35.248;149.138;2022-11-20T07:22:30;21.50;61.90
41533;DHT22;27262;-35.248;149.138;2022-11-20T07:25:01;21.50;61.90
41533;DHT22;27262;-35.248;149.138;2022-11-20T07:27:31;21.50;61.90
41533;DHT22;27262;-35.248;149.138;2022-11-20T07:30:02;21.50;61.80
41533;DHT22;27262;-35.248;149.138;2022-11-20T07:32:32;21.50;61.80
41533;DHT22;27262;-35.248;149.138;2022-11-20T07:35:03;21.50;61.80
41533;DHT22;27262;-35.248;149.138;2022-11-20T07:37:36;21.50;62.50
41533;DHT22;27262;-35.248;149.138;2022-11-20T07:40:07;21.50;61.70
41533;DHT22;27262;-35.248;149.138;2022-11-20T07:42:37;21.50;61.70
41533;DHT22;27262;-35.248;149.138;2022-11-20T07:45:07;21.50;61.70
41533;DHT22;27262;-35.248;149.138;2022-11-20T07:47:39;21.50;61.60
41533;DHT22;27262;-35.248;149.138;2022-11-20T07:50:09;21.50;61.60
41533;DHT22;27262;-35.248;149.138;2022-11-20T07:52:40;21.50;61.50
41533;DHT22;27262;-35.248;149.138;2022-11-20T07:55:10;21.50;61.60
41533;DHT22;27262;-35.248;149.138;2022-11-20T07:57:41;21.50;61.60
41533;DHT22;27262;-35.248;149.138;2022-11-20T08:00:11;21.50;61.60
41533;DHT22;27262;-35.248;149.138;2022-11-20T08:02:42;21.50;61.50
41533;DHT22;27262;-35.248;149.138;2022-11-20T08:05:12;21.50;61.60
41533;DHT22;27262;-35.248;149.138;2022-11-20T08:07:43;21.50;61.60
41533;DHT22;27262;-35.248;149.138;2022-11-20T08:10:15;21.50;61.60
41533;DHT22;27262;-35.248;149.138;2022-11-20T08:12:52;21.50;61.60
41533;DHT22;27262;-35.248;149.138;2022-11-20T08:15:40;21.50;61.60
41533;DHT22;27262;-35.248;149.138;2022-11-20T08:18:11;21.50;61.70
41533;DHT22;27262;-35.248;149.138;2022-11-20T08:21:01;21.50;61.60
41533;DHT22;27262;-35.248;149.138;2022-11-20T08:23:32;21.50;61.70
41533;DHT22;27262;-35.248;149.138;2022-11-20T08:26:02;21.50;61.70
41533;DHT22;27262;-35.248;149.138;2022-11-20T08:28:33;21.50;61.70
41533;DHT22;27262;-35.248;149.138;2022-11-20T08:31:04;21.50;61.70
41533;DHT22;27262;-35.248;149.138;2022-11-20T08:33:34;21.50;61.70
41533;DHT22;27262;-35.248;149.138;2022-11-20T08:36:05;21.50;61.70
41533;DHT22;27262;-35.248;149.138;2022-11-20T08:38:36;21.50;61.80
41533;DHT22;27262;-35.248;149.138;2022-11-20T08:41:06;21.50;61.80
41533;DHT22;27262;-35.248;149.138;2022-11-20T08:43:58;21.40;61.90
41533;DHT22;27262;-35.248;149.138;2022-11-20T08:46:36;21.50;62.10
41533;DHT22;27262;-35.248;149.138;2022-11-20T08:49:13;21.40;62.10
41533;DHT22;27262;-35.248;149.138;2022-11-20T08:51:44;21.40;62.20
41533;DHT22;27262;-35.248;149.138;2022-11-20T08:54:16;21.40;62.40
41533;DHT22;27262;-35.248;149.138;2022-11-20T08:56:49;21.40;62.50
41533;DHT22;27262;-35.248;149.138;2022-11-20T08:59:20;21.40;62.60
41533;DHT22;27262;-35.248;149.138;2022-11-20T09:02:10;21.40;62.70
41533;DHT22;27262;-35.248;149.138;2022-11-20T09:04:41;21.40;62.90
41533;DHT22;27262;-35.248;149.138;2022-11-20T09:07:12;21.40;62.90
41533;DHT22;27262;-35.248;149.138;2022-11-20T09:09:42;21.40;63.00
41533;DHT22;27262;-35.248;149.138;2022-11-20T09:12:33;21.30;63.00
41533;DHT22;27262;-35.248;149.138;2022-11-20T09:15:04;21.30;63.10
41533;DHT22;27262;-35.248;149.138;2022-11-20T09:17:34;21.30;63.20
41533;DHT22;27262;-35.248;149.138;2022-11-20T09:20:05;21.30;63.20
41533;DHT22;27262;-35.248;149.138;2022-11-20T09:22:38;21.30;63.20
41533;DHT22;27262;-35.248;149.138;2022-11-20T09:25:10;21.30;63.30
41533;DHT22;27262;-35.248;149.138;2022-11-20T09:27:41;21.30;63.40
41533;DHT22;27262;-35.248;149.138;2022-11-20T09:30:14;21.30;63.40
41533;DHT22;27262;-35.248;149.138;2022-11-20T09:32:44;21.30;63.40
41533;DHT22;27262;-35.248;149.138;2022-11-20T09:35:15;21.20;63.30
41533;DHT22;27262;-35.248;149.138;2022-11-20T09:37:45;21.20;63.30
41533;DHT22;27262;-35.248;149.138;2022-11-20T09:40:28;21.20;63.30
41533;DHT22;27262;-35.248;149.138;2022-11-20T09:56:39;21.20;63.40
41533;DHT22;27262;-35.248;149.138;2022-11-20T10:02:00;21.10;63.40
41533;DHT22;27262;-35.248;149.138;2022-11-20T10:04:33;21.10;63.50
41533;DHT22;27262;-35.248;149.138;2022-11-20T10:07:16;21.10;63.50
41533;DHT22;27262;-35.248;149.138;2022-11-20T10:10:02;21.10;63.50
41533;DHT22;27262;-35.248;149.138;2022-11-20T10:24:56;21.10;63.40
41533;DHT22;27262;-35.248;149.138;2022-11-20T10:30:33;21.10;63.30
41533;DHT22;27262;-35.248;149.138;2022-11-20T10:33:19;21.00;63.40
41533;DHT22;27262;-35.248;149.138;2022-11-20T10:36:16;21.00;63.40
41533;DHT22;27262;-35.248;149.138;2022-11-20T10:38:57;21.10;63.40
41533;DHT22;27262;-35.248;149.138;2022-11-20T10:41:31;21.00;63.40
41533;DHT22;27262;-35.248;149.138;2022-11-20T10:44:05;21.00;63.50
41533;DHT22;27262;-35.248;149.138;2022-11-20T10:46:44;21.00;63.50
41533;DHT22;27262;-35.248;149.138;2022-11-20T10:49:20;21.00;63.50
41533;DHT22;27262;-35.248;149.138;2022-11-20T11:02:38;20.90;63.40
41533;DHT22;27262;-35.248;149.138;2022-11-20T11:08:16;20.90;63.40
41533;DHT22;27262;-35.248;149.138;2022-11-20T11:10:59;20.80;63.40
41533;DHT22;27262;-35.248;149.138;2022-11-20T11:13:31;20.90;63.40
41533;DHT22;27262;-35.248;149.138;2022-11-20T11:16:03;20.80;63.40
41533;DHT22;27262;-35.248;149.138;2022-11-20T11:18:35;20.90;63.40
41533;DHT22;27262;-35.248;149.138;2022-11-20T11:21:06;20.80;63.40
41533;DHT22;27262;-35.248;149.138;2022-11-20T11:23:43;20.80;63.30
41533;DHT22;27262;-35.248;149.138;2022-11-20T11:26:22;20.80;63.20
41533;DHT22;27262;-35.248;149.138;2022-11-20T11:29:01;20.80;63.20
41533;DHT22;27262;-35.248;149.138;2022-11-20T11:31:35;20.80;63.30
41533;DHT22;27262;-35.248;149.138;2022-11-20T11:34:14;20.80;63.20
41533;DHT22;27262;-35.248;149.138;2022-11-20T11:36:58;20.80;63.20
41533;DHT22;27262;-35.248;149.138;2022-11-20T11:39:31;20.80;63.10
41533;DHT22;27262;-35.248;149.138;2022-11-20T11:42:03;20.80;63.20
41533;DHT22;27262;-35.248;149.138;2022-11-20T11:44:35;20.70;63.20
41533;DHT22;27262;-35.248;149.138;2022-11-20T11:47:46;20.70;63.10
41533;DHT22;27262;-35.248;149.138;2022-11-20T11:50:28;20.70;63.00
41533;DHT22;27262;-35.248;149.138;2022-11-20T11:53:09;20.70;63.10
41533;DHT22;27262;-35.248;149.138;2022-11-20T11:56:08;20.70;63.20
41533;DHT22;27262;-35.248;149.138;2022-11-20T12:01:44;20.70;63.10
41533;DHT22;27262;-35.248;149.138;2022-11-20T12:04:46;20.70;63.10
41533;DHT22;27262;-35.248;149.138;2022-11-20T12:07:42;20.60;63.10
41533;DHT22;27262;-35.248;149.138;2022-11-20T12:10:28;20.60;63.00
41533;DHT22;27262;-35.248;149.138;2022-11-20T12:13:26;20.60;63.10
41533;DHT22;27262;-35.248;149.138;2022-11-20T12:16:02;20.60;63.10
41533;DHT22;27262;-35.248;149.138;2022-11-20T12:18:33;20.50;63.10
41533;DHT22;27262;-35.248;149.138;2022-11-20T12:24:01;20.50;63.00
41533;DHT22;27262;-35.248;149.138;2022-11-20T12:29:29;20.60;63.10
41533;DHT22;27262;-35.248;149.138;2022-11-20T12:54:50;20.40;63.20
41533;DHT22;27262;-35.248;149.138;2022-11-20T12:57:48;20.40;63.10
41533;DHT22;27262;-35.248;149.138;2022-11-20T13:00:24;20.40;63.20
41533;DHT22;27262;-35.248;149.138;2022-11-20T13:03:13;20.40;63.20
41533;DHT22;27262;-35.248;149.138;2022-11-20T13:06:10;20.40;63.20
41533;DHT22;27262;-35.248;149.138;2022-11-20T13:09:04;20.40;63.10
41533;DHT22;27262;-35.248;149.138;2022-11-20T13:12:44;20.30;63.20
41533;DHT22;27262;-35.248;149.138;2022-11-20T13:14:47;20.30;63.20
41533;DHT22;27262;-35.248;149.138;2022-11-20T13:17:23;20.30;63.20
41533;DHT22;27262;-35.248;149.138;2022-11-20T13:19:56;20.30;63.30
41533;DHT22;27262;-35.248;149.138;2022-11-20T13:22:42;20.30;63.20
41533;DHT22;27262;-35.248;149.138;2022-11-20T13:27:54;20.30;63.90
41533;DHT22;27262;-35.248;149.138;2022-11-20T13:30:29;20.30;63.30
41533;DHT22;27262;-35.248;149.138;2022-11-20T13:38:51;20.20;63.20
41533;DHT22;27262;-35.248;149.138;2022-11-20T13:41:28;20.20;63.20
41533;DHT22;27262;-35.248;149.138;2022-11-20T13:46:47;20.20;63.10
41533;DHT22;27262;-35.248;149.138;2022-11-20T13:49:26;20.20;63.10
41533;DHT22;27262;-35.248;149.138;2022-11-20T14:01:23;20.10;63.10
41533;DHT22;27262;-35.248;149.138;2022-11-20T14:03:54;20.10;63.20
41533;DHT22;27262;-35.248;149.138;2022-11-20T14:06:44;20.10;63.40
41533;DHT22;27262;-35.248;149.138;2022-11-20T14:09:30;20.10;63.40
41533;DHT22;27262;-35.248;149.138;2022-11-20T14:12:02;20.10;63.30
41533;DHT22;27262;-35.248;149.138;2022-11-20T14:14:33;20.00;63.30
41533;DHT22;27262;-35.248;149.138;2022-11-20T14:17:28;20.10;63.40
41533;DHT22;27262;-35.248;149.138;2022-11-20T14:20:05;20.10;63.30
41533;DHT22;27262;-35.248;149.138;2022-11-20T14:22:36;20.00;63.40
41533;DHT22;27262;-35.248;149.138;2022-11-20T14:27:55;20.00;63.30
41533;DHT22;27262;-35.248;149.138;2022-11-20T14:30:43;20.00;63.40
41533;DHT22;27262;-35.248;149.138;2022-11-20T14:33:15;20.00;63.40
41533;DHT22;27262;-35.248;149.138;2022-11-20T14:35:51;20.00;63.40
41533;DHT22;27262;-35.248;149.138;2022-11-20T14:38:29;20.00;63.40
41533;DHT22;27262;-35.248;149.138;2022-11-20T14:41:20;20.00;63.40
41533;DHT22;27262;-35.248;149.138;2022-11-20T14:43:57;20.00;63.40
41533;DHT22;27262;-35.248;149.138;2022-11-20T14:46:28;20.00;63.50
41533;DHT22;27262;-35.248;149.138;2022-11-20T14:49:01;20.00;63.50
41533;DHT22;27262;-35.248;149.138;2022-11-20T14:51:38;20.00;63.50
41533;DHT22;27262;-35.248;149.138;2022-11-20T14:54:17;20.00;63.50
41533;DHT22;27262;-35.248;149.138;2022-11-20T14:57:03;19.90;63.50
41533;DHT22;27262;-35.248;149.138;2022-11-20T14:59:34;19.90;63.40
41533;DHT22;27262;-35.248;149.138;2022-11-20T15:02:11;19.90;63.50
41533;DHT22;27262;-35.248;149.138;2022-11-20T15:04:56;19.90;63.50
41533;DHT22;27262;-35.248;149.138;2022-11-20T15:07:29;19.90;63.50
41533;DHT22;27262;-35.248;149.138;2022-11-20T15:10:25;19.90;63.60
41533;DHT22;27262;-35.248;149.138;2022-11-20T15:13:01;19.90;63.60
41533;DHT22;27262;-35.248;149.138;2022-11-20T15:15:52;19.90;63.60
41533;DHT22;27262;-35.248;149.138;2022-11-20T15:18:38;19.80;63.50
41533;DHT22;27262;-35.248;149.138;2022-11-20T15:21:16;19.80;63.50
41533;DHT22;27262;-35.248;149.138;2022-11-20T15:23:47;19.80;63.60
41533;DHT22;27262;-35.248;149.138;2022-11-20T15:26:27;19.80;63.60
41533;DHT22;27262;-35.248;149.138;2022-11-20T15:28:59;19.80;63.50
41533;DHT22;27262;-35.248;149.138;2022-11-20T15:31:29;19.80;63.60
41533;DHT22;27262;-35.248;149.138;2022-11-20T15:33:59;19.80;63.60
41533;DHT22;27262;-35.248;149.138;2022-11-20T15:36:30;19.80;63.60
41533;DHT22;27262;-35.248;149.138;2022-11-20T15:39:00;19.80;63.60
41533;DHT22;27262;-35.248;149.138;2022-11-20T15:41:31;19.80;63.60
41533;DHT22;27262;-35.248;149.138;2022-11-20T15:44:03;19.70;63.50
41533;DHT22;27262;-35.248;149.138;2022-11-20T15:46:36;19.70;63.60
41533;DHT22;27262;-35.248;149.138;2022-11-20T15:49:16;19.70;63.50
41533;DHT22;27262;-35.248;149.138;2022-11-20T15:51:49;19.70;63.50
41533;DHT22;27262;-35.248;149.138;2022-11-20T15:54:22;19.70;63.60
41533;DHT22;27262;-35.248;149.138;2022-11-20T15:56:53;19.70;63.60
41533;DHT22;27262;-35.248;149.138;2022-11-20T15:59:23;19.70;63.70
41533;DHT22;27262;-35.248;149.138;2022-11-20T16:01:54;19.70;63.60
41533;DHT22;27262;-35.248;149.138;2022-11-20T16:04:24;19.70;63.70
41533;DHT22;27262;-35.248;149.138;2022-11-20T16:06:55;19.70;63.70
41533;DHT22;27262;-35.248;149.138;2022-11-20T16:09:25;19.70;63.70
41533;DHT22;27262;-35.248;149.138;2022-11-20T16:11:55;19.60;63.70
41533;DHT22;27262;-35.248;149.138;2022-11-20T16:14:28;19.60;63.70
41533;DHT22;27262;-35.248;149.138;2022-11-20T16:17:16;19.60;63.70
41533;DHT22;27262;-35.248;149.138;2022-11-20T16:20:09;19.60;63.80
41533;DHT22;27262;-35.248;149.138;2022-11-20T16:22:40;19.60;63.80
41533;DHT22;27262;-35.248;149.138;2022-11-20T16:25:10;19.60;63.80
41533;DHT22;27262;-35.248;149.138;2022-11-20T16:27:40;19.60;63.80
41533;DHT22;27262;-35.248;149.138;2022-11-20T16:30:11;19.60;63.80
41533;DHT22;27262;-35.248;149.138;2022-11-20T16:32:41;19.60;63.80
41533;DHT22;27262;-35.248;149.138;2022-11-20T16:35:12;19.50;63.70
41533;DHT22;27262;-35.248;149.138;2022-11-20T16:37:42;19.50;63.70
41533;DHT22;27262;-35.248;149.138;2022-11-20T16:40:12;19.50;63.70
41533;DHT22;27262;-35.248;149.138;2022-11-20T16:42:42;19.50;63.80
41533;DHT22;27262;-35.248;149.138;2022-11-20T16:45:13;19.50;63.80
41533;DHT22;27262;-35.248;149.138;2022-11-20T16:47:51;19.50;63.80
41533;DHT22;27262;-35.248;149.138;2022-11-20T16:50:21;19.50;63.80
41533;DHT22;27262;-35.248;149.138;2022-11-20T16:52:52;19.50;63.80
41533;DHT22;27262;-35.248;149.138;2022-11-20T16:55:22;19.40;63.70
41533;DHT22;27262;-35.248;149.138;2022-11-20T16:57:52;19.50;63.80
41533;DHT22;27262;-35.248;149.138;2022-11-20T17:00:23;19.40;63.80
41533;DHT22;27262;-35.248;149.138;2022-11-20T17:02:53;19.40;63.80
41533;DHT22;27262;-35.248;149.138;2022-11-20T17:05:23;19.40;63.80
41533;DHT22;27262;-35.248;149.138;2022-11-20T17:07:54;19.40;63.80
41533;DHT22;27262;-35.248;149.138;2022-11-20T17:10:24;19.40;63.80
41533;DHT22;27262;-35.248;149.138;2022-11-20T17:12:55;19.40;63.80
41533;DHT22;27262;-35.248;149.138;2022-11-20T17:15:25;19.40;63.90
41533;DHT22;27262;-35.248;149.138;2022-11-20T17:17:55;19.40;63.90